Etusivu
METAR-TAF:

METAR-TAF

Lentoasemat :

Arviatin lentoasema

Arviat, Nunavut, Kanada

Leveyspiiri: 61-06N, Pituuspiiri: 094-04W, korkeus merenpinnasta: 10 m

Tämänhetkinen sää

Tämä raportti tehtiin 59 minuuttia sitten, kello 10.00 UTC
Tuuli 6 kn luoteesta
Lämpötila -29°C
Kosteus 75%
Ilmanpaine 1035 hPa
Näkyvyys: 14.5 km
selkeää

METAR: CYEK 261000Z AUTO 32006KT 9SM CLR M29/M32 A3056 RMK SLP353

Aika: 04:59 (10:59 UTC)

Sääennuste

Tämä raportti tehtiin 5 tuntia ja 21 minuuttia sitten, kello 05.38 UTC
Ennuste voimassa 26. päivästä klo 06 UTC - 26. päivään klo 18 UTC
Tuuli 10 kn pohjoisen/luoteesta
Näkyvyys: 10 km
selkeää
Tulossa
26. päivästä klo 12 UTC - 26. päivään klo 14 UTC
Tuuli 8 kn lounaasta

TAF: CYEK 260538Z 2606/2618 33010KT P6SM SKC BECMG 2612/2614 22008KT RMK FCST BASED ON AUTO OBS. NXT FCST BY 261200Z

Säähavainnot ja -ennusteet yli 4000 lentoasemalta (METAR- ja TAF-raportit).

Käytössä olevat sääasemat on merkitty karttaan keltaisilla ja punaisilla pisteillä.

Aseta hiiri pisteen päälle nähdäksesi sääaseman nimen.

Klikkaa sitten nähdäksesi säähavainnot ja -ennusteet.

Kartan vaihtaminen: klikkaa mustalla rastilla varustettuja vihreitä pisteitä, niin voit zoomata sisään; viivalla varustettua vihreää pistettä, niin voit zoomata ulos tai vihreitä nuolia, niin pääset viereisille kartoille.


METAR-TAF: